sensor_id;sensor_type;location;lat;lon;timestamp;P1;durP1;ratioP1;P2;durP2;ratioP2
19004;SDS011;9635;52.078;8.648;2024-03-22T00:03:18;49.63;;;24.85;;
19004;SDS011;9635;52.078;8.648;2024-03-22T00:08:19;44.03;;;25.42;;
19004;SDS011;9635;52.078;8.648;2024-03-22T00:13:20;54.67;;;29.92;;
19004;SDS011;9635;52.078;8.648;2024-03-22T00:18:21;52.78;;;29.92;;
19004;SDS011;9635;52.078;8.648;2024-03-22T00:23:21;52.50;;;26.45;;
19004;SDS011;9635;52.078;8.648;2024-03-22T00:28:22;50.50;;;29.30;;
19004;SDS011;9635;52.078;8.648;2024-03-22T00:33:23;53.92;;;27.92;;
19004;SDS011;9635;52.078;8.648;2024-03-22T00:38:23;61.78;;;28.23;;
19004;SDS011;9635;52.078;8.648;2024-03-22T00:43:24;59.67;;;31.70;;
19004;SDS011;9635;52.078;8.648;2024-03-22T00:48:25;50.45;;;25.15;;
19004;SDS011;9635;52.078;8.648;2024-03-22T00:53:26;57.00;;;29.67;;
19004;SDS011;9635;52.078;8.648;2024-03-22T00:58:27;50.00;;;24.15;;
19004;SDS011;9635;52.078;8.648;2024-03-22T01:03:28;55.67;;;29.87;;
19004;SDS011;9635;52.078;8.648;2024-03-22T01:08:29;65.97;;;33.72;;
19004;SDS011;9635;52.078;8.648;2024-03-22T01:13:29;61.45;;;31.55;;
19004;SDS011;9635;52.078;8.648;2024-03-22T01:18:30;58.05;;;28.92;;
19004;SDS011;9635;52.078;8.648;2024-03-22T01:23:31;60.65;;;32.00;;
19004;SDS011;9635;52.078;8.648;2024-03-22T01:28:32;58.92;;;31.02;;
19004;SDS011;9635;52.078;8.648;2024-03-22T01:33:32;51.30;;;24.17;;
19004;SDS011;9635;52.078;8.648;2024-03-22T01:38:33;64.60;;;30.63;;
19004;SDS011;9635;52.078;8.648;2024-03-22T01:43:34;61.08;;;30.65;;
19004;SDS011;9635;52.078;8.648;2024-03-22T01:48:35;56.13;;;30.58;;
19004;SDS011;9635;52.078;8.648;2024-03-22T01:53:36;58.42;;;29.90;;
19004;SDS011;9635;52.078;8.648;2024-03-22T01:58:38;60.03;;;30.45;;
19004;SDS011;9635;52.078;8.648;2024-03-22T02:03:40;61.80;;;33.53;;
19004;SDS011;9635;52.078;8.648;2024-03-22T02:08:40;57.97;;;29.65;;
19004;SDS011;9635;52.078;8.648;2024-03-22T02:13:42;61.47;;;32.17;;
19004;SDS011;9635;52.078;8.648;2024-03-22T02:18:46;56.30;;;28.63;;
19004;SDS011;9635;52.078;8.648;2024-03-22T02:23:46;61.80;;;31.38;;
19004;SDS011;9635;52.078;8.648;2024-03-22T02:28:47;56.92;;;29.15;;
19004;SDS011;9635;52.078;8.648;2024-03-22T02:33:48;51.80;;;25.13;;
19004;SDS011;9635;52.078;8.648;2024-03-22T02:38:48;62.78;;;29.48;;
19004;SDS011;9635;52.078;8.648;2024-03-22T02:43:49;60.47;;;28.48;;
19004;SDS011;9635;52.078;8.648;2024-03-22T02:48:50;70.93;;;31.23;;
19004;SDS011;9635;52.078;8.648;2024-03-22T02:53:50;60.90;;;29.42;;
19004;SDS011;9635;52.078;8.648;2024-03-22T02:58:52;63.70;;;30.47;;
19004;SDS011;9635;52.078;8.648;2024-03-22T03:03:53;62.50;;;31.90;;
19004;SDS011;9635;52.078;8.648;2024-03-22T03:08:54;63.33;;;30.27;;
19004;SDS011;9635;52.078;8.648;2024-03-22T03:13:54;58.88;;;25.88;;
19004;SDS011;9635;52.078;8.648;2024-03-22T03:18:55;64.32;;;28.17;;
19004;SDS011;9635;52.078;8.648;2024-03-22T03:23:56;64.55;;;30.55;;
19004;SDS011;9635;52.078;8.648;2024-03-22T03:28:57;58.67;;;28.40;;
19004;SDS011;9635;52.078;8.648;2024-03-22T03:33:57;60.80;;;28.10;;
19004;SDS011;9635;52.078;8.648;2024-03-22T03:38:58;61.40;;;28.77;;
19004;SDS011;9635;52.078;8.648;2024-03-22T03:43:59;55.30;;;26.25;;
19004;SDS011;9635;52.078;8.648;2024-03-22T03:49:00;58.15;;;27.58;;
19004;SDS011;9635;52.078;8.648;2024-03-22T03:54:00;59.92;;;28.05;;
19004;SDS011;9635;52.078;8.648;2024-03-22T03:59:01;59.63;;;27.05;;
19004;SDS011;9635;52.078;8.648;2024-03-22T04:04:03;57.40;;;28.83;;
19004;SDS011;9635;52.078;8.648;2024-03-22T04:09:04;58.47;;;26.15;;
19004;SDS011;9635;52.078;8.648;2024-03-22T04:14:05;54.25;;;26.73;;
19004;SDS011;9635;52.078;8.648;2024-03-22T04:19:06;46.20;;;23.58;;
19004;SDS011;9635;52.078;8.648;2024-03-22T04:24:08;64.40;;;29.63;;
19004;SDS011;9635;52.078;8.648;2024-03-22T04:29:08;58.92;;;26.95;;
19004;SDS011;9635;52.078;8.648;2024-03-22T04:34:09;57.88;;;27.48;;
19004;SDS011;9635;52.078;8.648;2024-03-22T04:39:10;52.92;;;25.98;;
19004;SDS011;9635;52.078;8.648;2024-03-22T04:44:12;60.23;;;27.17;;
19004;SDS011;9635;52.078;8.648;2024-03-22T04:49:13;55.10;;;26.98;;
19004;SDS011;9635;52.078;8.648;2024-03-22T04:54:14;58.15;;;26.58;;
19004;SDS011;9635;52.078;8.648;2024-03-22T04:59:14;54.72;;;26.23;;
19004;SDS011;9635;52.078;8.648;2024-03-22T05:04:15;61.70;;;27.52;;
19004;SDS011;9635;52.078;8.648;2024-03-22T05:09:16;56.42;;;24.33;;
19004;SDS011;9635;52.078;8.648;2024-03-22T05:14:18;53.28;;;24.80;;
19004;SDS011;9635;52.078;8.648;2024-03-22T05:19:20;59.88;;;26.73;;
19004;SDS011;9635;52.078;8.648;2024-03-22T05:24:20;60.13;;;26.60;;
19004;SDS011;9635;52.078;8.648;2024-03-22T05:29:21;55.17;;;27.05;;
19004;SDS011;9635;52.078;8.648;2024-03-22T05:34:22;56.83;;;26.63;;
19004;SDS011;9635;52.078;8.648;2024-03-22T05:39:23;59.38;;;24.65;;
19004;SDS011;9635;52.078;8.648;2024-03-22T05:44:23;50.88;;;24.00;;
19004;SDS011;9635;52.078;8.648;2024-03-22T05:49:24;54.42;;;24.48;;
19004;SDS011;9635;52.078;8.648;2024-03-22T05:54:25;50.40;;;25.52;;
19004;SDS011;9635;52.078;8.648;2024-03-22T05:59:26;49.78;;;22.33;;
19004;SDS011;9635;52.078;8.648;2024-03-22T06:04:28;51.17;;;25.70;;
19004;SDS011;9635;52.078;8.648;2024-03-22T06:09:29;46.85;;;23.73;;
19004;SDS011;9635;52.078;8.648;2024-03-22T06:14:45;47.15;;;21.35;;
19004;SDS011;9635;52.078;8.648;2024-03-22T06:19:47;37.33;;;16.00;;
19004;SDS011;9635;52.078;8.648;2024-03-22T06:24:47;46.55;;;21.20;;
19004;SDS011;9635;52.078;8.648;2024-03-22T06:29:48;45.50;;;21.23;;
19004;SDS011;9635;52.078;8.648;2024-03-22T06:34:49;47.53;;;22.83;;
19004;SDS011;9635;52.078;8.648;2024-03-22T06:39:50;45.42;;;23.92;;
19004;SDS011;9635;52.078;8.648;2024-03-22T06:44:51;42.05;;;22.10;;
19004;SDS011;9635;52.078;8.648;2024-03-22T06:49:51;49.00;;;20.48;;
19004;SDS011;9635;52.078;8.648;2024-03-22T06:54:52;35.72;;;18.30;;
19004;SDS011;9635;52.078;8.648;2024-03-22T06:59:53;43.47;;;22.48;;
19004;SDS011;9635;52.078;8.648;2024-03-22T07:04:54;42.35;;;20.77;;
19004;SDS011;9635;52.078;8.648;2024-03-22T07:09:56;45.90;;;22.42;;
19004;SDS011;9635;52.078;8.648;2024-03-22T07:14:57;39.40;;;20.73;;
19004;SDS011;9635;52.078;8.648;2024-03-22T07:20:10;40.15;;;21.20;;
19004;SDS011;9635;52.078;8.648;2024-03-22T07:25:11;42.22;;;20.73;;
19004;SDS011;9635;52.078;8.648;2024-03-22T07:30:12;38.22;;;21.08;;
19004;SDS011;9635;52.078;8.648;2024-03-22T07:35:13;40.05;;;18.75;;
19004;SDS011;9635;52.078;8.648;2024-03-22T07:40:14;36.05;;;18.55;;
19004;SDS011;9635;52.078;8.648;2024-03-22T07:45:14;38.58;;;19.55;;
19004;SDS011;9635;52.078;8.648;2024-03-22T07:50:15;39.00;;;19.65;;
19004;SDS011;9635;52.078;8.648;2024-03-22T07:55:16;33.00;;;18.58;;
19004;SDS011;9635;52.078;8.648;2024-03-22T08:00:17;32.80;;;15.90;;
19004;SDS011;9635;52.078;8.648;2024-03-22T08:05:18;33.38;;;17.67;;
19004;SDS011;9635;52.078;8.648;2024-03-22T08:10:21;32.88;;;19.55;;
19004;SDS011;9635;52.078;8.648;2024-03-22T08:15:21;33.78;;;17.98;;
19004;SDS011;9635;52.078;8.648;2024-03-22T08:20:23;31.35;;;17.77;;
19004;SDS011;9635;52.078;8.648;2024-03-22T08:25:24;31.98;;;16.38;;
19004;SDS011;9635;52.078;8.648;2024-03-22T08:30:25;31.10;;;14.55;;
19004;SDS011;9635;52.078;8.648;2024-03-22T08:35:26;31.25;;;16.80;;
19004;SDS011;9635;52.078;8.648;2024-03-22T08:40:27;30.23;;;16.67;;
19004;SDS011;9635;52.078;8.648;2024-03-22T08:45:28;35.60;;;18.20;;
19004;SDS011;9635;52.078;8.648;2024-03-22T08:50:28;29.40;;;16.65;;
19004;SDS011;9635;52.078;8.648;2024-03-22T08:55:29;29.42;;;15.73;;
19004;SDS011;9635;52.078;8.648;2024-03-22T09:00:30;31.63;;;16.48;;
19004;SDS011;9635;52.078;8.648;2024-03-22T09:05:31;29.23;;;17.38;;
19004;SDS011;9635;52.078;8.648;2024-03-22T09:10:33;32.53;;;19.27;;
19004;SDS011;9635;52.078;8.648;2024-03-22T09:15:34;27.77;;;15.38;;
19004;SDS011;9635;52.078;8.648;2024-03-22T09:20:35;30.02;;;16.70;;
19004;SDS011;9635;52.078;8.648;2024-03-22T09:25:35;26.80;;;14.95;;
19004;SDS011;9635;52.078;8.648;2024-03-22T09:30:39;29.80;;;13.95;;
19004;SDS011;9635;52.078;8.648;2024-03-22T09:35:41;28.90;;;14.20;;
19004;SDS011;9635;52.078;8.648;2024-03-22T09:40:42;27.58;;;15.68;;
19004;SDS011;9635;52.078;8.648;2024-03-22T09:45:42;27.45;;;14.90;;
19004;SDS011;9635;52.078;8.648;2024-03-22T09:50:48;25.20;;;14.60;;
19004;SDS011;9635;52.078;8.648;2024-03-22T09:55:49;29.13;;;16.35;;
19004;SDS011;9635;52.078;8.648;2024-03-22T10:00:52;27.80;;;15.77;;
19004;SDS011;9635;52.078;8.648;2024-03-22T10:05:53;22.45;;;12.73;;
19004;SDS011;9635;52.078;8.648;2024-03-22T10:10:54;27.63;;;15.45;;
19004;SDS011;9635;52.078;8.648;2024-03-22T10:15:56;29.90;;;16.10;;
19004;SDS011;9635;52.078;8.648;2024-03-22T10:21:01;25.48;;;14.38;;
19004;SDS011;9635;52.078;8.648;2024-03-22T10:26:02;27.33;;;15.43;;
19004;SDS011;9635;52.078;8.648;2024-03-22T10:31:04;17.37;;;11.43;;
19004;SDS011;9635;52.078;8.648;2024-03-22T10:36:05;24.13;;;14.88;;
19004;SDS011;9635;52.078;8.648;2024-03-22T10:41:07;19.63;;;10.63;;
19004;SDS011;9635;52.078;8.648;2024-03-22T10:46:08;22.52;;;13.55;;
19004;SDS011;9635;52.078;8.648;2024-03-22T10:51:10;25.58;;;15.65;;
19004;SDS011;9635;52.078;8.648;2024-03-22T10:56:11;24.48;;;13.38;;
19004;SDS011;9635;52.078;8.648;2024-03-22T11:01:23;20.08;;;11.35;;
19004;SDS011;9635;52.078;8.648;2024-03-22T11:06:24;19.42;;;10.77;;
19004;SDS011;9635;52.078;8.648;2024-03-22T11:11:28;18.77;;;10.02;;
19004;SDS011;9635;52.078;8.648;2024-03-22T11:16:29;25.40;;;14.80;;
19004;SDS011;9635;52.078;8.648;2024-03-22T11:21:33;22.92;;;11.98;;
19004;SDS011;9635;52.078;8.648;2024-03-22T11:26:34;23.25;;;14.65;;
19004;SDS011;9635;52.078;8.648;2024-03-22T11:31:35;25.25;;;15.38;;
19004;SDS011;9635;52.078;8.648;2024-03-22T11:36:37;26.30;;;15.25;;
19004;SDS011;9635;52.078;8.648;2024-03-22T11:41:38;26.52;;;16.25;;
19004;SDS011;9635;52.078;8.648;2024-03-22T11:46:39;31.23;;;15.95;;
19004;SDS011;9635;52.078;8.648;2024-03-22T11:51:40;28.83;;;15.68;;
19004;SDS011;9635;52.078;8.648;2024-03-22T11:56:41;27.95;;;15.98;;
19004;SDS011;9635;52.078;8.648;2024-03-22T12:01:41;25.33;;;14.57;;
19004;SDS011;9635;52.078;8.648;2024-03-22T12:06:43;38.17;;;19.02;;
19004;SDS011;9635;52.078;8.648;2024-03-22T12:11:45;33.20;;;19.27;;
19004;SDS011;9635;52.078;8.648;2024-03-22T12:16:45;30.45;;;17.23;;
19004;SDS011;9635;52.078;8.648;2024-03-22T12:21:46;29.65;;;18.75;;
19004;SDS011;9635;52.078;8.648;2024-03-22T12:26:47;34.00;;;20.23;;
19004;SDS011;9635;52.078;8.648;2024-03-22T12:31:48;33.47;;;20.55;;
19004;SDS011;9635;52.078;8.648;2024-03-22T12:36:49;33.90;;;20.75;;
19004;SDS011;9635;52.078;8.648;2024-03-22T12:41:49;36.50;;;22.65;;
19004;SDS011;9635;52.078;8.648;2024-03-22T12:46:50;33.45;;;20.65;;
19004;SDS011;9635;52.078;8.648;2024-03-22T12:51:51;35.60;;;21.90;;
19004;SDS011;9635;52.078;8.648;2024-03-22T12:56:52;33.28;;;20.63;;
19004;SDS011;9635;52.078;8.648;2024-03-22T13:01:53;35.65;;;23.48;;
19004;SDS011;9635;52.078;8.648;2024-03-22T13:06:54;39.38;;;20.83;;
19004;SDS011;9635;52.078;8.648;2024-03-22T13:11:55;38.63;;;23.25;;
19004;SDS011;9635;52.078;8.648;2024-03-22T13:16:56;40.05;;;21.70;;
19004;SDS011;9635;52.078;8.648;2024-03-22T13:21:56;36.08;;;22.42;;
19004;SDS011;9635;52.078;8.648;2024-03-22T13:26:57;40.50;;;23.50;;
19004;SDS011;9635;52.078;8.648;2024-03-22T13:31:58;39.20;;;25.15;;
19004;SDS011;9635;52.078;8.648;2024-03-22T13:36:59;41.58;;;23.15;;
19004;SDS011;9635;52.078;8.648;2024-03-22T13:42:00;47.03;;;28.20;;
19004;SDS011;9635;52.078;8.648;2024-03-22T13:47:01;46.42;;;28.98;;
19004;SDS011;9635;52.078;8.648;2024-03-22T13:52:05;50.20;;;30.73;;
19004;SDS011;9635;52.078;8.648;2024-03-22T13:57:05;54.50;;;29.50;;
19004;SDS011;9635;52.078;8.648;2024-03-22T14:02:06;52.75;;;28.30;;
19004;SDS011;9635;52.078;8.648;2024-03-22T14:07:08;54.90;;;29.23;;
19004;SDS011;9635;52.078;8.648;2024-03-22T14:12:09;52.67;;;30.63;;
19004;SDS011;9635;52.078;8.648;2024-03-22T14:17:10;53.60;;;29.95;;
19004;SDS011;9635;52.078;8.648;2024-03-22T14:22:12;52.63;;;29.00;;
19004;SDS011;9635;52.078;8.648;2024-03-22T14:27:13;47.00;;;28.50;;
19004;SDS011;9635;52.078;8.648;2024-03-22T14:32:14;56.43;;;26.00;;
19004;SDS011;9635;52.078;8.648;2024-03-22T14:37:15;44.95;;;27.00;;
19004;SDS011;9635;52.078;8.648;2024-03-22T14:42:16;45.08;;;26.13;;
19004;SDS011;9635;52.078;8.648;2024-03-22T14:47:16;46.13;;;25.77;;
19004;SDS011;9635;52.078;8.648;2024-03-22T14:52:17;53.42;;;27.60;;
19004;SDS011;9635;52.078;8.648;2024-03-22T14:57:18;51.95;;;28.38;;
19004;SDS011;9635;52.078;8.648;2024-03-22T15:02:19;55.85;;;29.23;;
19004;SDS011;9635;52.078;8.648;2024-03-22T15:07:20;55.17;;;29.20;;
19004;SDS011;9635;52.078;8.648;2024-03-22T15:12:22;49.55;;;28.65;;
19004;SDS011;9635;52.078;8.648;2024-03-22T15:17:23;51.50;;;26.65;;
19004;SDS011;9635;52.078;8.648;2024-03-22T15:22:23;46.10;;;23.33;;
19004;SDS011;9635;52.078;8.648;2024-03-22T15:27:24;41.78;;;20.95;;
19004;SDS011;9635;52.078;8.648;2024-03-22T15:32:27;36.53;;;20.67;;
19004;SDS011;9635;52.078;8.648;2024-03-22T15:37:29;36.30;;;18.92;;
19004;SDS011;9635;52.078;8.648;2024-03-22T15:42:30;36.30;;;19.48;;
19004;SDS011;9635;52.078;8.648;2024-03-22T15:47:33;33.08;;;18.40;;
19004;SDS011;9635;52.078;8.648;2024-03-22T15:52:35;35.03;;;18.08;;
19004;SDS011;9635;52.078;8.648;2024-03-22T15:57:36;35.60;;;18.70;;
19004;SDS011;9635;52.078;8.648;2024-03-22T16:02:36;35.72;;;17.75;;
19004;SDS011;9635;52.078;8.648;2024-03-22T16:07:37;32.22;;;17.92;;
19004;SDS011;9635;52.078;8.648;2024-03-22T16:12:38;38.67;;;20.52;;
19004;SDS011;9635;52.078;8.648;2024-03-22T16:17:39;40.28;;;17.83;;
19004;SDS011;9635;52.078;8.648;2024-03-22T16:22:41;38.15;;;20.45;;
19004;SDS011;9635;52.078;8.648;2024-03-22T16:27:42;36.00;;;17.88;;
19004;SDS011;9635;52.078;8.648;2024-03-22T16:32:43;35.40;;;18.23;;
19004;SDS011;9635;52.078;8.648;2024-03-22T16:37:44;34.23;;;17.77;;
19004;SDS011;9635;52.078;8.648;2024-03-22T16:47:52;41.60;;;21.02;;
19004;SDS011;9635;52.078;8.648;2024-03-22T16:52:53;33.70;;;18.58;;
19004;SDS011;9635;52.078;8.648;2024-03-22T16:57:53;37.30;;;19.65;;
19004;SDS011;9635;52.078;8.648;2024-03-22T17:02:55;34.70;;;18.38;;
19004;SDS011;9635;52.078;8.648;2024-03-22T17:07:55;33.80;;;17.80;;
19004;SDS011;9635;52.078;8.648;2024-03-22T17:12:56;27.27;;;14.13;;
19004;SDS011;9635;52.078;8.648;2024-03-22T17:17:57;32.95;;;16.13;;
19004;SDS011;9635;52.078;8.648;2024-03-22T17:22:58;30.25;;;15.80;;
19004;SDS011;9635;52.078;8.648;2024-03-22T17:27:59;29.52;;;16.15;;
19004;SDS011;9635;52.078;8.648;2024-03-22T17:33:00;35.58;;;17.00;;
19004;SDS011;9635;52.078;8.648;2024-03-22T17:38:01;33.63;;;16.52;;
19004;SDS011;9635;52.078;8.648;2024-03-22T17:43:03;32.05;;;15.95;;
19004;SDS011;9635;52.078;8.648;2024-03-22T17:48:04;35.38;;;16.77;;
19004;SDS011;9635;52.078;8.648;2024-03-22T17:53:06;40.95;;;19.33;;
19004;SDS011;9635;52.078;8.648;2024-03-22T17:58:07;39.00;;;18.05;;
19004;SDS011;9635;52.078;8.648;2024-03-22T18:03:07;43.03;;;20.48;;
19004;SDS011;9635;52.078;8.648;2024-03-22T18:08:08;44.85;;;19.90;;
19004;SDS011;9635;52.078;8.648;2024-03-22T18:13:10;12.17;;;7.33;;
19004;SDS011;9635;52.078;8.648;2024-03-22T18:18:10;13.10;;;5.68;;
19004;SDS011;9635;52.078;8.648;2024-03-22T18:23:13;13.88;;;5.72;;
19004;SDS011;9635;52.078;8.648;2024-03-22T18:28:17;11.55;;;5.82;;
19004;SDS011;9635;52.078;8.648;2024-03-22T18:33:18;11.65;;;6.68;;
19004;SDS011;9635;52.078;8.648;2024-03-22T18:38:18;12.32;;;6.50;;
19004;SDS011;9635;52.078;8.648;2024-03-22T18:43:19;14.95;;;6.75;;
19004;SDS011;9635;52.078;8.648;2024-03-22T18:48:20;28.20;;;8.57;;
19004;SDS011;9635;52.078;8.648;2024-03-22T18:53:21;23.02;;;9.13;;
19004;SDS011;9635;52.078;8.648;2024-03-22T18:58:22;27.30;;;9.40;;
19004;SDS011;9635;52.078;8.648;2024-03-22T19:03:23;20.73;;;9.38;;
19004;SDS011;9635;52.078;8.648;2024-03-22T19:08:24;30.23;;;10.35;;
19004;SDS011;9635;52.078;8.648;2024-03-22T19:13:25;31.37;;;11.37;;
19004;SDS011;9635;52.078;8.648;2024-03-22T19:18:26;30.75;;;10.18;;
19004;SDS011;9635;52.078;8.648;2024-03-22T19:23:27;30.52;;;10.32;;
19004;SDS011;9635;52.078;8.648;2024-03-22T19:28:28;27.45;;;10.90;;
19004;SDS011;9635;52.078;8.648;2024-03-22T19:33:30;36.65;;;10.80;;
19004;SDS011;9635;52.078;8.648;2024-03-22T19:38:31;35.60;;;13.32;;
19004;SDS011;9635;52.078;8.648;2024-03-22T19:43:32;30.00;;;11.60;;
19004;SDS011;9635;52.078;8.648;2024-03-22T19:48:35;33.78;;;13.00;;
19004;SDS011;9635;52.078;8.648;2024-03-22T19:53:38;33.22;;;13.18;;
19004;SDS011;9635;52.078;8.648;2024-03-22T19:58:39;29.73;;;11.57;;
19004;SDS011;9635;52.078;8.648;2024-03-22T20:03:40;31.05;;;12.35;;
19004;SDS011;9635;52.078;8.648;2024-03-22T20:08:40;32.45;;;12.65;;
19004;SDS011;9635;52.078;8.648;2024-03-22T20:13:41;39.60;;;14.05;;
19004;SDS011;9635;52.078;8.648;2024-03-22T20:18:42;30.88;;;12.35;;
19004;SDS011;9635;52.078;8.648;2024-03-22T20:23:43;31.98;;;13.50;;
19004;SDS011;9635;52.078;8.648;2024-03-22T20:28:44;29.25;;;12.57;;
19004;SDS011;9635;52.078;8.648;2024-03-22T20:33:44;36.67;;;13.77;;
